NCAR-RAP Real-Time Weather Data

Output produced by METARs form (17 September 2019  16:38 UTC)
found at http://weather.rap.ucar.edu/surface/
 
KHVR 171553Z AUTO 31009KT 10SM CLR 18/07 A2973 RMK AO2 SLP055 T01830067
KHVR 171453Z AUTO 30006KT 10SM CLR 17/08 A2971 RMK AO2 SLP049 T01670078 51014
KHVR 171353Z AUTO 24004KT 10SM CLR 13/08 A2970 RMK AO2 SLP048 T01330083
KHVR 171253Z AUTO 24004KT 10SM CLR 13/08 A2968 RMK AO2 SLP039 T01280078
KHVR 171153Z AUTO 22008KT 10SM CLR 14/07 A2966 RMK AO2 SLP028 T01440072 10194 20144 53004
KHVR 171053Z AUTO 21005KT 10SM CLR 16/07 A2965 RMK AO2 SLP022 T01610067
KHVR 170953Z AUTO 22008KT 10SM CLR 17/06 A2965 RMK AO2 SLP018 T01670061
KHVR 170853Z AUTO 10SM CLR 18/06 A2965 RMK AO2 SLP020 T01830056 50004
KHVR 170753Z AUTO 36007KT 10SM CLR 19/06 A2966 RMK AO2 SLP023 T01940061
KHVR 170653Z AUTO 15008KT 10SM FEW120 17/07 A2966 RMK AO2 PRESRR SLP026 T01720072 403170067
KHVR 170553Z AUTO 32011G18KT 10SM FEW075 SCT100 19/08 A2964 RMK AO2 SLP022 T01890083 10267 20172 53012
KHVR 170453Z AUTO 04004KT 10SM CLR 20/08 A2961 RMK AO2 SLP016 T02000083
KHVR 170353Z AUTO 00000KT 10SM CLR 18/09 A2961 RMK AO2 SLP019 T01830089
KHVR 170253Z AUTO 20003KT 10SM CLR 18/09 A2960 RMK AO2 SLP016 T01830089 53003
KHVR 170053Z AUTO 32006KT 10SM CLR 24/07 A2959 RMK AO2 SLP011 T02440067
KHVR 162353Z AUTO 35007KT 10SM CLR 27/06 A2959 RMK AO2 SLP010 T02720056 10317 20211 56006
KHVR 162253Z AUTO 26008KT 10SM CLR 31/02 A2959 RMK AO2 SLP008 T03110017
KHVR 162153Z AUTO 31006KT 10SM CLR 32/02 A2959 RMK AO2 SLP007 T03170017